sensor_id;sensor_type;location;lat;lon;timestamp;temperature;humidity
21518;DHT22;61765;45.794;24.150;2023-05-10T00:00:21;12.30;86.30
21518;DHT22;61765;45.794;24.150;2023-05-10T00:08:30;12.60;86.00
21518;DHT22;61765;45.794;24.150;2023-05-10T00:16:36;12.10;87.20
21518;DHT22;61765;45.794;24.150;2023-05-10T00:24:44;11.90;88.30
21518;DHT22;61765;45.794;24.150;2023-05-10T00:32:49;12.30;87.50
21518;DHT22;61765;45.794;24.150;2023-05-10T00:40:57;12.60;86.90
21518;DHT22;61765;45.794;24.150;2023-05-10T00:49:06;12.70;86.50
21518;DHT22;61765;45.794;24.150;2023-05-10T00:57:14;12.40;87.20
21518;DHT22;61765;45.794;24.150;2023-05-10T01:05:20;12.40;87.30
21518;DHT22;61765;45.794;24.150;2023-05-10T01:13:33;12.50;87.20
21518;DHT22;61765;45.794;24.150;2023-05-10T01:21:45;12.50;87.20
21518;DHT22;61765;45.794;24.150;2023-05-10T01:38:41;12.20;88.10
21518;DHT22;61765;45.794;24.150;2023-05-10T01:46:51;12.10;88.00
21518;DHT22;61765;45.794;24.150;2023-05-10T01:55:04;12.10;88.20
21518;DHT22;61765;45.794;24.150;2023-05-10T02:03:11;12.30;87.80
21518;DHT22;61765;45.794;24.150;2023-05-10T02:11:20;12.00;88.60
21518;DHT22;61765;45.794;24.150;2023-05-10T02:19:29;12.10;87.90
21518;DHT22;61765;45.794;24.150;2023-05-10T02:27:38;12.30;87.70
21518;DHT22;61765;45.794;24.150;2023-05-10T03:19:05;12.40;86.40
21518;DHT22;61765;45.794;24.150;2023-05-10T03:27:12;12.50;86.80
21518;DHT22;61765;45.794;24.150;2023-05-10T03:35:22;12.70;86.30
21518;DHT22;61765;45.794;24.150;2023-05-10T03:43:29;13.00;85.00
21518;DHT22;61765;45.794;24.150;2023-05-10T03:51:37;13.00;84.60
21518;DHT22;61765;45.794;24.150;2023-05-10T03:59:43;12.70;85.30
21518;DHT22;61765;45.794;24.150;2023-05-10T04:07:51;12.40;86.20
21518;DHT22;61765;45.794;24.150;2023-05-10T04:15:56;12.40;86.90
21518;DHT22;61765;45.794;24.150;2023-05-10T04:24:05;12.30;86.10
21518;DHT22;61765;45.794;24.150;2023-05-10T04:32:10;12.70;86.30
21518;DHT22;61765;45.794;24.150;2023-05-10T04:40:19;12.80;85.90
21518;DHT22;61765;45.794;24.150;2023-05-10T04:48:24;13.30;84.80
21518;DHT22;61765;45.794;24.150;2023-05-10T04:56:32;13.80;82.90
21518;DHT22;61765;45.794;24.150;2023-05-10T05:04:38;13.20;84.70
21518;DHT22;61765;45.794;24.150;2023-05-10T05:12:46;13.60;83.40
21518;DHT22;61765;45.794;24.150;2023-05-10T05:20:51;13.60;84.20
21518;DHT22;61765;45.794;24.150;2023-05-10T05:28:59;13.70;83.80
21518;DHT22;61765;45.794;24.150;2023-05-10T05:37:05;13.70;83.50
21518;DHT22;61765;45.794;24.150;2023-05-10T05:45:13;13.80;85.00
21518;DHT22;61765;45.794;24.150;2023-05-10T05:53:19;14.80;82.60
21518;DHT22;61765;45.794;24.150;2023-05-10T06:01:27;16.10;77.30
21518;DHT22;61765;45.794;24.150;2023-05-10T06:09:32;16.30;75.10
21518;DHT22;61765;45.794;24.150;2023-05-10T06:17:40;16.50;76.00
21518;DHT22;61765;45.794;24.150;2023-05-10T06:25:46;17.00;73.90
21518;DHT22;61765;45.794;24.150;2023-05-10T06:33:54;17.50;71.90
21518;DHT22;61765;45.794;24.150;2023-05-10T06:42:00;17.70;70.40
21518;DHT22;61765;45.794;24.150;2023-05-10T06:50:11;18.00;69.90
21518;DHT22;61765;45.794;24.150;2023-05-10T06:58:16;17.90;67.20
21518;DHT22;61765;45.794;24.150;2023-05-10T07:06:24;18.30;64.80
21518;DHT22;61765;45.794;24.150;2023-05-10T07:14:35;18.50;64.20
21518;DHT22;61765;45.794;24.150;2023-05-10T07:22:43;17.50;64.20
21518;DHT22;61765;45.794;24.150;2023-05-10T07:30:48;17.50;64.50
21518;DHT22;61765;45.794;24.150;2023-05-10T07:38:57;18.60;61.00
21518;DHT22;61765;45.794;24.150;2023-05-10T07:47:03;18.80;60.30
21518;DHT22;61765;45.794;24.150;2023-05-10T07:55:15;19.70;58.80
21518;DHT22;61765;45.794;24.150;2023-05-10T08:03:20;19.60;58.60
21518;DHT22;61765;45.794;24.150;2023-05-10T08:11:28;20.30;57.00
21518;DHT22;61765;45.794;24.150;2023-05-10T08:19:36;19.40;58.60
21518;DHT22;61765;45.794;24.150;2023-05-10T08:27:44;19.90;57.70
21518;DHT22;61765;45.794;24.150;2023-05-10T08:35:50;19.30;58.60
21518;DHT22;61765;45.794;24.150;2023-05-10T08:43:58;19.70;57.40
21518;DHT22;61765;45.794;24.150;2023-05-10T08:52:05;19.40;58.40
21518;DHT22;61765;45.794;24.150;2023-05-10T09:00:16;19.60;57.30
21518;DHT22;61765;45.794;24.150;2023-05-10T09:08:23;19.40;57.70
21518;DHT22;61765;45.794;24.150;2023-05-10T09:16:33;19.50;57.90
21518;DHT22;61765;45.794;24.150;2023-05-10T09:24:38;19.10;58.40
21518;DHT22;61765;45.794;24.150;2023-05-10T09:32:50;19.30;58.10
21518;DHT22;61765;45.794;24.150;2023-05-10T09:40:56;19.50;58.70
21518;DHT22;61765;45.794;24.150;2023-05-10T09:49:05;19.70;58.60
21518;DHT22;61765;45.794;24.150;2023-05-10T09:57:19;19.60;58.50
21518;DHT22;61765;45.794;24.150;2023-05-10T10:05:32;20.10;57.80
21518;DHT22;61765;45.794;24.150;2023-05-10T10:13:39;20.40;56.90
21518;DHT22;61765;45.794;24.150;2023-05-10T10:21:48;20.40;56.70
21518;DHT22;61765;45.794;24.150;2023-05-10T10:30:02;19.50;57.90
21518;DHT22;61765;45.794;24.150;2023-05-10T10:38:12;18.80;59.20
21518;DHT22;61765;45.794;24.150;2023-05-10T10:46:18;19.30;58.20
21518;DHT22;61765;45.794;24.150;2023-05-10T10:54:29;19.10;58.40
21518;DHT22;61765;45.794;24.150;2023-05-10T11:02:43;19.20;58.30
21518;DHT22;61765;45.794;24.150;2023-05-10T11:11:04;19.10;58.60
21518;DHT22;61765;45.794;24.150;2023-05-10T11:19:12;18.60;59.00
21518;DHT22;61765;45.794;24.150;2023-05-10T11:27:23;19.30;57.80
21518;DHT22;61765;45.794;24.150;2023-05-10T11:35:29;19.40;57.30
21518;DHT22;61765;45.794;24.150;2023-05-10T11:43:37;20.10;56.90
21518;DHT22;61765;45.794;24.150;2023-05-10T11:51:43;20.50;55.00
21518;DHT22;61765;45.794;24.150;2023-05-10T11:59:56;20.40;55.60
21518;DHT22;61765;45.794;24.150;2023-05-10T12:08:11;24.50;52.20
21518;DHT22;61765;45.794;24.150;2023-05-10T12:16:22;36.20;37.20
21518;DHT22;61765;45.794;24.150;2023-05-10T12:24:28;30.00;39.20
21518;DHT22;61765;45.794;24.150;2023-05-10T12:32:44;24.20;46.90
21518;DHT22;61765;45.794;24.150;2023-05-10T12:40:51;22.60;50.50
21518;DHT22;61765;45.794;24.150;2023-05-10T12:48:59;22.30;51.80
21518;DHT22;61765;45.794;24.150;2023-05-10T12:57:11;27.50;43.70
21518;DHT22;61765;45.794;24.150;2023-05-10T13:05:19;25.40;45.00
21518;DHT22;61765;45.794;24.150;2023-05-10T13:13:25;22.30;49.20
21518;DHT22;61765;45.794;24.150;2023-05-10T13:21:33;21.10;51.40
21518;DHT22;61765;45.794;24.150;2023-05-10T13:29:39;21.60;51.70
21518;DHT22;61765;45.794;24.150;2023-05-10T13:37:49;21.00;52.30
21518;DHT22;61765;45.794;24.150;2023-05-10T13:45:55;21.30;52.40
21518;DHT22;61765;45.794;24.150;2023-05-10T13:54:04;20.10;52.80
21518;DHT22;61765;45.794;24.150;2023-05-10T14:02:09;20.20;53.90
21518;DHT22;61765;45.794;24.150;2023-05-10T14:10:18;20.70;53.20
21518;DHT22;61765;45.794;24.150;2023-05-10T14:18:23;19.00;55.10
21518;DHT22;61765;45.794;24.150;2023-05-10T14:26:31;20.00;54.90
21518;DHT22;61765;45.794;24.150;2023-05-10T14:34:37;20.60;53.10
21518;DHT22;61765;45.794;24.150;2023-05-10T14:42:45;19.90;53.10
21518;DHT22;61765;45.794;24.150;2023-05-10T14:50:51;20.20;53.70
21518;DHT22;61765;45.794;24.150;2023-05-10T14:58:59;20.50;53.70
21518;DHT22;61765;45.794;24.150;2023-05-10T15:07:06;19.60;56.70
21518;DHT22;61765;45.794;24.150;2023-05-10T15:15:14;19.60;57.80
21518;DHT22;61765;45.794;24.150;2023-05-10T15:23:23;19.10;59.60
21518;DHT22;61765;45.794;24.150;2023-05-10T15:31:32;18.70;60.80
21518;DHT22;61765;45.794;24.150;2023-05-10T15:39:38;18.40;61.70
21518;DHT22;61765;45.794;24.150;2023-05-10T15:47:46;18.20;61.90
21518;DHT22;61765;45.794;24.150;2023-05-10T15:55:52;18.30;63.00
21518;DHT22;61765;45.794;24.150;2023-05-10T16:04:00;18.10;63.80
21518;DHT22;61765;45.794;24.150;2023-05-10T16:12:06;18.30;61.00
21518;DHT22;61765;45.794;24.150;2023-05-10T16:20:14;18.70;59.30
21518;DHT22;61765;45.794;24.150;2023-05-10T16:28:20;18.70;59.70
21518;DHT22;61765;45.794;24.150;2023-05-10T16:36:28;17.80;61.10
21518;DHT22;61765;45.794;24.150;2023-05-10T16:44:35;17.50;61.40
21518;DHT22;61765;45.794;24.150;2023-05-10T16:52:43;17.30;62.60
21518;DHT22;61765;45.794;24.150;2023-05-10T17:00:48;17.50;62.20
21518;DHT22;61765;45.794;24.150;2023-05-10T17:08:56;17.70;61.60
21518;DHT22;61765;45.794;24.150;2023-05-10T17:17:02;17.70;61.60
21518;DHT22;61765;45.794;24.150;2023-05-10T17:25:10;17.70;61.50
21518;DHT22;61765;45.794;24.150;2023-05-10T17:33:16;17.40;62.30
21518;DHT22;61765;45.794;24.150;2023-05-10T17:41:26;17.20;63.30
21518;DHT22;61765;45.794;24.150;2023-05-10T17:49:34;17.00;65.00
21518;DHT22;61765;45.794;24.150;2023-05-10T17:57:43;16.50;66.90
21518;DHT22;61765;45.794;24.150;2023-05-10T18:05:52;16.10;69.60
21518;DHT22;61765;45.794;24.150;2023-05-10T18:14:00;16.40;68.90
21518;DHT22;61765;45.794;24.150;2023-05-10T18:22:15;16.30;69.10
21518;DHT22;61765;45.794;24.150;2023-05-10T18:30:23;15.90;70.60
21518;DHT22;61765;45.794;24.150;2023-05-10T18:38:29;15.80;71.20
21518;DHT22;61765;45.794;24.150;2023-05-10T18:46:37;15.90;71.10
21518;DHT22;61765;45.794;24.150;2023-05-10T18:54:45;15.90;71.10
21518;DHT22;61765;45.794;24.150;2023-05-10T19:02:53;15.90;70.90
21518;DHT22;61765;45.794;24.150;2023-05-10T19:10:58;15.90;71.80
21518;DHT22;61765;45.794;24.150;2023-05-10T19:19:11;15.60;70.80
21518;DHT22;61765;45.794;24.150;2023-05-10T19:27:17;16.00;70.10
21518;DHT22;61765;45.794;24.150;2023-05-10T19:35:25;16.20;69.80
21518;DHT22;61765;45.794;24.150;2023-05-10T19:43:31;16.20;69.50
21518;DHT22;61765;45.794;24.150;2023-05-10T19:51:40;16.20;69.50
21518;DHT22;61765;45.794;24.150;2023-05-10T19:59:46;16.70;68.80
21518;DHT22;61765;45.794;24.150;2023-05-10T20:07:54;16.80;68.80
21518;DHT22;61765;45.794;24.150;2023-05-10T20:16:00;16.40;69.00
21518;DHT22;61765;45.794;24.150;2023-05-10T20:24:09;17.10;68.20
21518;DHT22;61765;45.794;24.150;2023-05-10T20:32:14;17.20;68.50
21518;DHT22;61765;45.794;24.150;2023-05-10T20:40:24;16.90;68.80
21518;DHT22;61765;45.794;24.150;2023-05-10T20:48:29;17.10;68.90
21518;DHT22;61765;45.794;24.150;2023-05-10T20:56:38;16.80;69.00
21518;DHT22;61765;45.794;24.150;2023-05-10T21:04:45;16.80;69.40
21518;DHT22;61765;45.794;24.150;2023-05-10T21:12:56;16.60;69.80
21518;DHT22;61765;45.794;24.150;2023-05-10T21:21:01;16.80;69.70
21518;DHT22;61765;45.794;24.150;2023-05-10T21:29:09;16.90;69.60
21518;DHT22;61765;45.794;24.150;2023-05-10T21:37:15;16.80;69.70
21518;DHT22;61765;45.794;24.150;2023-05-10T21:45:23;16.70;70.00
21518;DHT22;61765;45.794;24.150;2023-05-10T21:53:30;16.50;70.10
21518;DHT22;61765;45.794;24.150;2023-05-10T22:01:38;16.00;71.70
21518;DHT22;61765;45.794;24.150;2023-05-10T22:09:45;16.30;71.00
21518;DHT22;61765;45.794;24.150;2023-05-10T22:17:53;16.20;70.60
21518;DHT22;61765;45.794;24.150;2023-05-10T22:26:00;16.30;70.70
21518;DHT22;61765;45.794;24.150;2023-05-10T22:34:08;15.70;71.10
21518;DHT22;61765;45.794;24.150;2023-05-10T22:42:13;16.20;70.70
21518;DHT22;61765;45.794;24.150;2023-05-10T22:50:22;16.30;70.30
21518;DHT22;61765;45.794;24.150;2023-05-10T22:58:27;16.30;70.20
21518;DHT22;61765;45.794;24.150;2023-05-10T23:06:35;16.20;70.30
21518;DHT22;61765;45.794;24.150;2023-05-10T23:14:41;16.10;70.20
21518;DHT22;61765;45.794;24.150;2023-05-10T23:22:50;15.30;72.10
21518;DHT22;61765;45.794;24.150;2023-05-10T23:30:55;15.40;73.20
21518;DHT22;61765;45.794;24.150;2023-05-10T23:39:04;15.10;74.20
21518;DHT22;61765;45.794;24.150;2023-05-10T23:47:10;15.20;74.90
21518;DHT22;61765;45.794;24.150;2023-05-10T23:55:18;15.80;73.10
